createdAt,value
2022-11-03T00:01:37.979Z,96035.41
2022-11-03T00:04:07.632Z,96032.19
2022-11-03T00:06:36.757Z,95970.69
2022-11-03T00:09:07.978Z,96034.38
2022-11-03T00:11:37.540Z,96031.84
2022-11-03T00:14:06.418Z,96029.59
2022-11-03T00:16:37.271Z,96015.69
2022-11-03T00:19:06.137Z,96027.34
2022-11-03T00:21:34.944Z,95928.53
2022-11-03T00:24:03.918Z,96031.00
2022-11-03T00:26:34.483Z,96030.59
2022-11-03T00:29:03.981Z,96023.25
2022-11-03T00:31:33.460Z,96024.72
2022-11-03T00:34:05.222Z,96025.16
2022-11-03T00:36:35.264Z,96011.25
2022-11-03T00:39:04.102Z,96012.22
2022-11-03T00:41:32.548Z,96016.19
2022-11-03T00:44:01.266Z,96017.19
2022-11-03T00:46:30.645Z,96000.44
2022-11-03T00:48:59.194Z,96006.75
2022-11-03T00:51:30.983Z,96009.44
2022-11-03T00:54:01.285Z,96002.56
2022-11-03T00:56:31.537Z,96002.56
2022-11-03T00:59:01.113Z,95994.03
2022-11-03T01:01:31.964Z,95952.28
2022-11-03T01:04:18.097Z,95992.00
2022-11-03T01:06:52.808Z,95970.78
2022-11-03T01:09:22.837Z,95977.91
2022-11-03T01:11:57.578Z,95967.34
2022-11-03T01:14:28.170Z,95984.75
2022-11-03T01:16:56.867Z,95980.38
2022-11-03T01:19:25.638Z,95973.94
2022-11-03T01:21:55.861Z,95961.50
2022-11-03T01:24:24.282Z,95975.34
2022-11-03T01:26:52.825Z,95979.88
2022-11-03T01:29:21.464Z,95962.66
2022-11-03T01:31:50.273Z,95962.91
2022-11-03T01:34:20.613Z,95962.16
2022-11-03T01:36:49.966Z,95858.28
2022-11-03T01:39:22.650Z,95951.78
2022-11-03T01:41:52.662Z,95955.84
2022-11-03T01:44:31.565Z,95951.03
2022-11-03T01:47:15.246Z,95945.63
2022-11-03T01:49:49.115Z,95950.78
2022-11-03T01:52:21.985Z,95949.91
2022-11-03T01:54:57.552Z,95939.28
2022-11-03T01:57:29.439Z,95945.19
2022-11-03T01:59:59.672Z,95957.78
2022-11-03T02:02:29.337Z,95943.00
2022-11-03T02:05:00.629Z,95940.53
2022-11-03T02:07:35.297Z,95935.72
2022-11-03T02:10:05.653Z,95929.53
2022-11-03T02:12:34.822Z,95905.31
2022-11-03T02:15:06.509Z,95923.34
2022-11-03T02:17:36.838Z,95905.97
2022-11-03T02:20:10.305Z,95904.81
2022-11-03T02:23:14.214Z,95929.66
2022-11-03T02:25:47.034Z,95893.44
2022-11-03T02:28:19.349Z,95890.88
2022-11-03T02:30:53.416Z,95894.75
2022-11-03T02:33:39.088Z,95885.94
2022-11-03T02:36:14.186Z,95885.44
2022-11-03T02:38:48.482Z,95868.31
2022-11-03T02:41:19.896Z,95874.72
2022-11-03T02:43:50.384Z,95864.31
2022-11-03T02:46:20.477Z,95869.44
2022-11-03T02:48:50.030Z,95790.13
2022-11-03T02:51:18.438Z,95856.03
2022-11-03T02:53:55.178Z,95855.53
2022-11-03T02:56:26.446Z,95836.81
2022-11-03T02:59:01.727Z,95822.88
2022-11-03T03:01:37.490Z,95821.72
2022-11-03T03:04:09.874Z,95799.28
2022-11-03T03:06:43.287Z,95751.97
2022-11-03T03:09:15.478Z,95816.28
2022-11-03T03:11:48.387Z,95806.38
2022-11-03T03:14:19.955Z,95816.28
2022-11-03T03:16:58.997Z,95809.59
2022-11-03T03:19:38.061Z,95801.38
2022-11-03T03:22:17.565Z,95792.00
2022-11-03T03:24:53.004Z,95756.38
2022-11-03T03:27:28.298Z,95787.22
2022-11-03T03:30:00.913Z,95786.13
2022-11-03T03:32:32.351Z,95781.88
2022-11-03T03:35:04.461Z,95786.63
2022-11-03T03:37:34.938Z,95780.75
2022-11-03T03:40:06.462Z,95777.84
2022-11-03T03:42:39.539Z,95762.84
2022-11-03T03:45:11.318Z,95774.56
2022-11-03T03:47:39.785Z,95774.16
2022-11-03T03:50:08.966Z,95763.56
2022-11-03T03:52:38.764Z,95772.50
2022-11-03T03:55:09.338Z,95772.03
2022-11-03T03:57:39.556Z,95767.50
2022-11-03T04:00:09.695Z,95748.16
2022-11-03T04:02:38.184Z,95714.09
2022-11-03T04:05:07.618Z,95745.00
2022-11-03T04:07:51.844Z,95740.06
2022-11-03T04:10:22.871Z,95753.22
2022-11-03T04:13:10.028Z,95738.19
2022-11-03T04:15:57.955Z,95731.25
2022-11-03T04:18:43.713Z,95730.94
2022-11-03T04:21:31.726Z,95734.25
2022-11-03T04:24:01.723Z,95718.63
2022-11-03T04:26:30.641Z,95725.69
2022-11-03T04:29:03.386Z,95711.19
2022-11-03T04:31:37.069Z,95662.66
2022-11-03T04:34:06.011Z,95709.16
2022-11-03T04:36:34.442Z,95707.66
2022-11-03T04:39:02.953Z,95642.94
2022-11-03T04:41:34.373Z,95682.00
2022-11-03T04:44:09.391Z,95710.13
2022-11-03T04:46:38.234Z,95712.59
2022-11-03T04:49:12.681Z,95718.25
2022-11-03T04:51:41.000Z,95670.44
2022-11-03T04:54:23.958Z,95710.47
2022-11-03T04:56:52.574Z,95613.63
2022-11-03T04:59:22.601Z,95702.09
2022-11-03T05:01:51.091Z,95704.28
2022-11-03T05:04:20.429Z,95689.78
2022-11-03T05:06:52.752Z,95695.69
2022-11-03T05:09:24.945Z,95671.38
2022-11-03T05:11:53.633Z,95680.13
2022-11-03T05:14:27.405Z,95676.34
2022-11-03T05:16:56.616Z,95665.00
2022-11-03T05:19:29.078Z,95664.25
2022-11-03T05:21:59.266Z,95625.13
2022-11-03T05:24:28.358Z,95662.13
2022-11-03T05:26:59.249Z,95651.16
2022-11-03T05:29:35.247Z,95578.38
2022-11-03T05:32:04.009Z,95644.72
2022-11-03T05:34:39.380Z,95642.06
2022-11-03T05:37:27.908Z,95634.09
2022-11-03T05:40:00.165Z,95627.13
2022-11-03T05:42:37.764Z,95629.31
2022-11-03T05:45:17.997Z,95589.81
2022-11-03T05:47:46.342Z,95627.25
2022-11-03T05:50:22.868Z,95625.06
2022-11-03T05:52:55.381Z,95603.19
2022-11-03T05:55:30.889Z,95629.63
2022-11-03T05:58:01.864Z,95631.53
2022-11-03T06:00:34.481Z,95633.91
2022-11-03T06:03:03.617Z,95631.78
2022-11-03T06:05:34.954Z,95639.03
2022-11-03T06:08:05.568Z,95632.84
2022-11-03T06:10:38.012Z,95615.25
2022-11-03T06:13:15.131Z,95614.19
2022-11-03T06:15:47.382Z,95605.00
2022-11-03T06:18:18.254Z,95618.97
2022-11-03T06:20:51.514Z,95625.00
2022-11-03T06:23:20.949Z,95628.19
2022-11-03T06:25:50.459Z,95616.91
2022-11-03T06:28:22.274Z,95617.97
2022-11-03T06:30:52.356Z,95617.44
2022-11-03T06:33:24.961Z,95613.41
2022-11-03T06:35:56.469Z,95601.88
2022-11-03T06:38:27.211Z,95574.91
2022-11-03T06:40:55.704Z,95608.38
2022-11-03T06:43:27.079Z,95615.38
2022-11-03T06:45:59.313Z,95557.66
2022-11-03T06:48:29.723Z,95602.50
2022-11-03T06:51:00.206Z,95592.84
2022-11-03T06:53:33.243Z,95589.59
2022-11-03T06:56:01.736Z,95586.38
2022-11-03T06:58:33.969Z,95597.69
2022-11-03T07:01:14.154Z,95572.28
2022-11-03T07:03:42.619Z,95605.53
2022-11-03T07:06:19.390Z,95604.97
2022-11-03T07:08:50.350Z,95608.75
2022-11-03T07:11:21.362Z,95578.63
2022-11-03T07:13:53.117Z,95613.84
2022-11-03T07:16:29.112Z,95608.53
2022-11-03T07:19:00.729Z,95608.53
2022-11-03T07:21:39.451Z,95606.66
2022-11-03T07:24:17.873Z,95496.84
2022-11-03T07:26:46.389Z,95599.66
2022-11-03T07:29:22.271Z,95598.91
2022-11-03T07:31:55.144Z,95570.91
2022-11-03T07:34:27.762Z,95592.47
2022-11-03T07:36:58.430Z,95598.38
2022-11-03T07:39:37.128Z,95586.03
2022-11-03T07:42:16.937Z,95586.31
2022-11-03T07:44:46.462Z,95590.66
2022-11-03T07:47:22.157Z,95582.31
2022-11-03T07:49:50.886Z,95582.59
2022-11-03T07:52:22.400Z,95581.25
2022-11-03T07:54:52.374Z,95570.22
2022-11-03T07:57:23.926Z,95575.34
2022-11-03T07:59:54.561Z,95561.66
2022-11-03T08:02:32.475Z,95559.75
2022-11-03T08:05:01.517Z,95554.88
2022-11-03T08:07:30.242Z,95540.91
2022-11-03T08:09:58.636Z,95518.31
2022-11-03T08:12:27.183Z,95537.16
2022-11-03T08:14:55.723Z,95551.13
2022-11-03T08:17:24.200Z,95544.13
2022-11-03T08:19:54.104Z,95532.28
2022-11-03T08:22:25.991Z,95537.66
2022-11-03T08:24:54.389Z,95488.66
2022-11-03T08:27:23.005Z,95529.28
2022-11-03T08:29:51.658Z,95524.19
2022-11-03T08:32:20.069Z,95517.69
2022-11-03T08:34:48.502Z,95559.97
2022-11-03T08:37:18.320Z,95438.97
2022-11-03T08:39:46.629Z,95512.56
2022-11-03T08:42:15.037Z,95471.22
2022-11-03T08:44:43.404Z,95508.56
2022-11-03T08:47:11.938Z,95505.59
2022-11-03T08:49:40.274Z,95502.34
2022-11-03T08:52:08.958Z,95500.47
2022-11-03T08:54:39.095Z,95492.09
2022-11-03T08:57:07.482Z,95487.47
2022-11-03T08:59:36.305Z,95474.53
2022-11-03T09:02:04.777Z,95430.25
2022-11-03T09:04:33.272Z,95484.78
2022-11-03T09:07:02.013Z,95447.94
2022-11-03T09:12:20.165Z,95471.81
2022-11-03T09:14:48.586Z,95462.09
2022-11-03T09:17:16.936Z,95462.13
2022-11-03T09:19:45.636Z,95463.72
2022-11-03T09:22:14.415Z,95452.41
2022-11-03T09:24:42.814Z,95430.56
2022-11-03T09:27:11.196Z,95445.38
2022-11-03T09:30:10.949Z,95435.25
2022-11-03T09:32:29.638Z,95441.63
2022-11-03T09:34:58.139Z,95423.91
2022-11-03T09:37:26.441Z,95442.69
2022-11-03T09:39:54.837Z,95442.94
2022-11-03T09:42:23.645Z,95437.81
2022-11-03T09:44:54.506Z,95442.13
2022-11-03T09:47:25.842Z,95427.34
2022-11-03T09:49:54.257Z,95433.53
2022-11-03T09:52:25.388Z,95421.94
2022-11-03T09:54:56.861Z,95440.22
2022-11-03T09:57:28.197Z,95401.56
2022-11-03T09:59:58.198Z,95423.50
2022-11-03T10:02:29.571Z,95435.91
2022-11-03T10:05:00.340Z,95432.09
2022-11-03T10:07:31.546Z,95424.78
2022-11-03T10:10:01.530Z,95410.22
2022-11-03T10:12:33.914Z,95380.13
2022-11-03T10:15:03.806Z,95391.63
2022-11-03T10:17:32.677Z,95396.59
2022-11-03T10:20:02.782Z,95395.78
2022-11-03T10:22:31.202Z,95370.78
2022-11-03T10:25:29.806Z,95376.28
2022-11-03T10:28:20.573Z,95354.44
2022-11-03T10:31:12.969Z,95342.84
2022-11-03T10:33:43.327Z,95360.88
2022-11-03T10:36:25.842Z,95364.31
2022-11-03T10:38:54.965Z,95373.38
2022-11-03T10:41:24.836Z,95337.53
2022-11-03T10:44:08.351Z,95348.47
2022-11-03T10:46:54.762Z,95349.53
2022-11-03T10:49:23.291Z,95347.88
2022-11-03T10:51:53.624Z,95334.06
2022-11-03T10:54:24.521Z,95345.63
2022-11-03T10:56:54.098Z,95344.56
2022-11-03T10:59:27.574Z,95340.19
2022-11-03T11:01:58.746Z,95295.19
2022-11-03T11:04:27.398Z,95340.56
2022-11-03T11:06:56.408Z,95332.38
2022-11-03T11:09:27.418Z,95337.78
2022-11-03T11:12:06.673Z,95328.50
2022-11-03T11:14:40.399Z,95335.16
2022-11-03T11:17:33.121Z,95330.69
2022-11-03T11:20:29.773Z,95322.63
2022-11-03T11:23:53.101Z,95296.19
2022-11-03T11:26:42.543Z,95302.13
2022-11-03T11:29:46.767Z,95308.53
2022-11-03T11:32:59.533Z,95291.50
2022-11-03T11:36:04.280Z,95290.34
2022-11-03T11:38:59.191Z,95278.94
2022-11-03T11:42:05.363Z,95271.16
2022-11-03T11:44:55.143Z,95269.97
2022-11-03T11:47:35.690Z,95257.38
2022-11-03T11:50:36.254Z,95237.63
2022-11-03T11:53:15.448Z,95182.03
2022-11-03T11:55:48.791Z,95246.47
2022-11-03T11:58:25.357Z,95269.41
2022-11-03T12:01:00.152Z,95195.06
2022-11-03T12:03:32.744Z,95201.19
2022-11-03T12:06:02.792Z,95228.13
2022-11-03T12:08:32.512Z,95216.31
2022-11-03T12:11:03.240Z,95177.41
2022-11-03T12:13:47.685Z,95196.88
2022-11-03T12:16:30.145Z,95196.25
2022-11-03T12:18:59.302Z,95173.84
2022-11-03T12:21:49.464Z,95169.13
2022-11-03T12:24:29.092Z,95165.22
2022-11-03T12:26:57.517Z,95163.25
2022-11-03T12:29:26.003Z,95162.25
2022-11-03T12:31:54.477Z,95146.38
2022-11-03T12:34:23.304Z,95141.34
2022-11-03T12:36:56.206Z,95140.16
2022-11-03T12:39:24.853Z,95122.97
2022-11-03T12:41:53.309Z,95124.97
2022-11-03T12:44:21.847Z,95130.28
2022-11-03T12:46:50.334Z,94918.16
2022-11-03T12:49:18.731Z,95009.13
2022-11-03T12:51:47.498Z,95101.34
2022-11-03T12:54:17.333Z,95100.88
2022-11-03T12:56:45.930Z,95098.66
2022-11-03T12:59:14.676Z,95080.66
2022-11-03T13:01:43.198Z,95077.81
2022-11-03T13:04:12.007Z,95092.84
2022-11-03T13:06:40.629Z,95086.94
2022-11-03T13:09:09.329Z,95059.00
2022-11-03T13:11:56.166Z,95068.13
2022-11-03T13:14:26.681Z,95047.44
2022-11-03T13:16:55.242Z,95063.31
2022-11-03T13:19:23.629Z,95050.19
2022-11-03T13:21:52.367Z,95048.78
2022-11-03T13:24:20.764Z,94984.16
2022-11-03T13:26:50.509Z,94991.28
2022-11-03T13:29:18.967Z,95046.06
2022-11-03T13:31:47.319Z,95036.78
2022-11-03T13:34:15.720Z,95034.50
2022-11-03T13:36:44.163Z,95036.41
2022-11-03T13:39:12.872Z,95016.25
2022-11-03T13:41:41.210Z,95020.91
2022-11-03T13:44:11.382Z,95015.09
2022-11-03T13:46:39.857Z,94975.03
2022-11-03T13:49:51.199Z,95001.38
2022-11-03T13:51:56.523Z,94998.50
2022-11-03T14:00:05.602Z,95009.13
2022-11-03T14:05:22.422Z,94995.13
2022-11-03T14:07:51.216Z,94945.66
2022-11-03T14:10:19.926Z,94982.88
2022-11-03T14:12:47.279Z,94965.88
2022-11-03T14:15:17.125Z,94992.59
2022-11-03T14:17:45.445Z,94991.16
2022-11-03T14:20:14.503Z,94971.44
2022-11-03T14:22:43.791Z,94954.47
2022-11-03T14:25:12.126Z,94967.72
2022-11-03T14:27:40.692Z,94966.31
2022-11-03T14:30:10.066Z,94967.03
2022-11-03T14:32:39.978Z,94964.75
2022-11-03T14:35:09.120Z,94958.38
2022-11-03T14:37:37.708Z,94951.69
2022-11-03T14:40:07.989Z,94955.75
2022-11-03T14:42:35.370Z,94947.16
2022-11-03T14:45:03.762Z,94952.19
2022-11-03T14:47:32.079Z,94951.38
2022-11-03T14:50:01.928Z,94905.16
2022-11-03T14:52:30.358Z,94934.09
2022-11-03T14:54:58.817Z,94931.19
2022-11-03T14:57:27.303Z,94928.38
2022-11-03T14:59:55.629Z,94926.19
2022-11-03T15:02:24.135Z,94937.09
2022-11-03T15:04:52.670Z,94915.69
2022-11-03T15:07:22.512Z,94807.94
2022-11-03T15:09:51.333Z,94923.78
2022-11-03T15:12:19.840Z,94914.19
2022-11-03T15:14:48.233Z,94916.38
2022-11-03T15:17:16.711Z,94904.88
2022-11-03T15:19:45.121Z,94901.69
2022-11-03T15:22:13.679Z,94886.78
2022-11-03T15:27:31.899Z,94870.75
2022-11-03T15:30:00.217Z,94868.28
2022-11-03T15:32:32.604Z,94851.19
2022-11-03T15:35:03.794Z,94855.81
2022-11-03T15:37:32.262Z,94853.41
2022-11-03T15:40:02.047Z,94845.59
2022-11-03T15:42:30.451Z,94847.97
2022-11-03T15:44:59.040Z,94837.78
2022-11-03T15:47:27.615Z,94829.41
2022-11-03T15:49:56.030Z,94842.97
2022-11-03T15:52:24.323Z,94724.09
2022-11-03T15:54:53.030Z,94851.78
2022-11-03T15:57:22.814Z,94696.59
2022-11-03T15:59:53.837Z,94799.63
2022-11-03T16:02:40.930Z,94819.31
2022-11-03T16:05:11.089Z,94792.34
2022-11-03T16:07:40.098Z,94803.50
2022-11-03T16:10:09.506Z,94797.63
2022-11-03T16:12:39.678Z,94760.06
2022-11-03T16:15:09.295Z,94778.84
2022-11-03T16:17:42.783Z,94748.97
2022-11-03T16:20:14.026Z,94749.25
2022-11-03T16:22:42.507Z,94755.25
2022-11-03T16:25:13.475Z,94757.66
2022-11-03T16:27:45.574Z,94771.44
2022-11-03T16:30:14.581Z,94749.25
2022-11-03T16:32:43.053Z,94714.41
2022-11-03T16:35:11.579Z,94748.34
2022-11-03T16:37:40.045Z,94749.69
2022-11-03T16:40:13.531Z,94744.97
2022-11-03T16:42:46.108Z,94713.31
2022-11-03T16:45:19.544Z,94732.50
2022-11-03T16:47:48.667Z,94732.97
2022-11-03T16:50:17.538Z,94731.28
2022-11-03T16:52:46.193Z,94703.13
2022-11-03T16:55:15.452Z,94682.91
2022-11-03T16:57:43.873Z,94705.72
2022-11-03T17:00:16.276Z,94711.91
2022-11-03T17:02:45.752Z,94707.13
2022-11-03T17:05:17.708Z,94707.72
2022-11-03T17:07:52.930Z,94673.38
2022-11-03T17:10:22.653Z,94685.66
2022-11-03T17:12:51.092Z,94696.56
2022-11-03T17:15:20.941Z,94603.88
2022-11-03T17:17:49.645Z,94652.22
2022-11-03T17:20:18.685Z,94615.06
2022-11-03T17:22:47.752Z,94654.81
2022-11-03T17:25:16.257Z,94659.69
2022-11-03T17:27:47.747Z,94375.00
2022-11-03T17:30:20.646Z,94615.47
2022-11-03T17:32:53.013Z,94655.78
2022-11-03T17:35:24.773Z,94660.91
2022-11-03T17:37:54.505Z,94638.22
2022-11-03T17:40:25.320Z,94637.41
2022-11-03T17:42:54.612Z,94562.88
2022-11-03T17:45:26.038Z,94655.41
2022-11-03T17:47:55.861Z,94634.22
2022-11-03T17:50:26.564Z,94450.78
2022-11-03T17:52:55.722Z,94634.84
2022-11-03T17:55:30.384Z,94637.00
2022-11-03T17:58:02.130Z,94608.84
2022-11-03T18:00:32.162Z,94611.06
2022-11-03T18:03:02.217Z,94632.41
2022-11-03T18:05:32.390Z,94630.03
2022-11-03T18:08:02.813Z,94620.34
2022-11-03T18:10:34.775Z,94618.66
2022-11-03T18:13:17.339Z,94614.84
2022-11-03T18:15:47.937Z,94616.84
2022-11-03T18:18:22.390Z,94575.13
2022-11-03T18:20:53.953Z,94614.47
2022-11-03T18:23:23.955Z,94608.34
2022-11-03T18:25:53.446Z,94531.75
2022-11-03T18:28:21.970Z,94600.09
2022-11-03T18:30:53.506Z,94602.19
2022-11-03T18:33:26.790Z,94583.81
2022-11-03T18:35:55.786Z,94585.41
2022-11-03T18:38:26.052Z,94355.22
2022-11-03T18:40:54.813Z,94581.22
2022-11-03T18:43:25.005Z,94580.91
2022-11-03T18:45:53.647Z,94580.09
2022-11-03T18:48:24.333Z,94557.53
2022-11-03T18:50:54.443Z,94568.91
2022-11-03T18:53:25.927Z,94559.84
2022-11-03T18:55:59.143Z,94557.13
2022-11-03T18:58:27.791Z,94555.06
2022-11-03T19:00:56.305Z,94549.03
2022-11-03T19:03:26.538Z,94537.97
2022-11-03T19:05:56.466Z,94539.88
2022-11-03T19:08:27.248Z,94526.81
2022-11-03T19:10:57.411Z,94482.63
2022-11-03T19:13:30.703Z,94504.03
2022-11-03T19:16:01.970Z,94478.72
2022-11-03T19:18:37.220Z,94508.44
2022-11-03T19:21:13.015Z,94510.88
2022-11-03T19:23:47.643Z,94457.53
2022-11-03T19:26:22.174Z,94492.81
2022-11-03T19:28:56.260Z,94465.69
2022-11-03T19:31:28.558Z,94440.09
2022-11-03T19:34:00.435Z,94467.66
2022-11-03T19:36:32.456Z,94407.56
2022-11-03T19:39:02.175Z,94450.47
2022-11-03T19:41:48.324Z,94445.09
2022-11-03T19:44:17.433Z,94442.41
2022-11-03T19:46:46.078Z,94440.31
2022-11-03T19:49:20.398Z,94451.09
2022-11-03T19:51:49.188Z,94432.16
2022-11-03T19:54:22.376Z,94434.03
2022-11-03T19:56:51.702Z,94419.00
2022-11-03T19:59:20.880Z,94418.50
2022-11-03T20:01:50.982Z,94435.66
2022-11-03T20:04:21.279Z,94440.25
2022-11-03T20:06:49.663Z,94424.84
2022-11-03T20:09:20.407Z,94434.41
2022-11-03T20:11:48.894Z,94430.31
2022-11-03T20:14:21.039Z,94437.59
2022-11-03T20:16:50.771Z,94391.66
2022-11-03T20:19:22.004Z,94435.50
2022-11-03T20:21:52.216Z,94426.50
2022-11-03T20:24:22.286Z,94451.69
2022-11-03T20:26:53.300Z,94462.47
2022-11-03T20:29:23.170Z,94458.56
2022-11-03T20:31:52.789Z,94455.38
2022-11-03T20:34:24.041Z,94467.94
2022-11-03T20:36:53.667Z,94435.97
2022-11-03T20:39:24.813Z,94470.94
2022-11-03T20:41:57.183Z,94462.47
2022-11-03T20:44:27.811Z,94471.56
2022-11-03T20:46:57.509Z,94473.16
2022-11-03T20:49:28.701Z,94483.97
2022-11-03T20:52:00.075Z,94479.66
2022-11-03T20:54:30.656Z,94411.72
2022-11-03T20:56:59.462Z,94480.47
2022-11-03T20:59:33.310Z,94431.38
2022-11-03T21:02:05.932Z,94414.78
2022-11-03T21:04:37.283Z,94459.91
2022-11-03T21:07:07.451Z,94439.22
2022-11-03T21:09:37.220Z,94457.69
2022-11-03T21:12:08.374Z,94462.63
2022-11-03T21:14:38.213Z,94453.25
2022-11-03T21:17:30.113Z,94419.97
2022-11-03T21:20:04.631Z,94437.88
2022-11-03T21:22:54.068Z,94450.88
2022-11-03T21:25:25.534Z,94455.75
2022-11-03T21:27:55.186Z,94464.34
2022-11-03T21:30:24.874Z,94451.16
2022-11-03T21:32:54.972Z,94441.13
2022-11-03T21:35:25.012Z,94457.03
2022-11-03T21:37:54.812Z,94458.81
2022-11-03T21:40:24.487Z,94452.44
2022-11-03T21:43:11.328Z,94455.63
2022-11-03T21:45:39.854Z,94433.03
2022-11-03T21:48:26.228Z,94457.63
2022-11-03T21:50:56.190Z,94438.53
2022-11-03T21:53:24.782Z,94441.91
2022-11-03T21:55:53.704Z,94453.06
2022-11-03T21:58:22.105Z,94450.88
2022-11-03T22:00:50.622Z,94441.84
2022-11-03T22:03:19.149Z,94418.50
2022-11-03T22:05:47.565Z,94430.88
2022-11-03T22:08:17.491Z,94437.38
2022-11-03T22:10:45.959Z,94441.16
2022-11-03T22:13:14.312Z,94418.97
2022-11-03T22:16:00.667Z,94415.06
2022-11-03T22:18:29.069Z,94413.41
2022-11-03T22:21:16.296Z,94419.22
2022-11-03T22:24:08.529Z,94409.78
2022-11-03T22:26:59.652Z,94404.78
2022-11-03T22:29:45.164Z,94408.19
2022-11-03T22:32:16.465Z,94407.19
2022-11-03T22:35:02.142Z,94400.63
2022-11-03T22:40:16.532Z,94383.03
2022-11-03T22:43:02.011Z,94387.47
2022-11-03T22:45:47.533Z,94390.16
2022-11-03T22:48:15.986Z,94392.38
2022-11-03T22:50:44.565Z,94391.25
2022-11-03T22:53:30.122Z,94380.47
2022-11-03T22:56:02.357Z,94378.41
2022-11-03T22:58:31.119Z,94368.56
2022-11-03T23:01:00.230Z,94366.75
2022-11-03T23:03:32.557Z,94367.56
2022-11-03T23:06:02.748Z,94373.28
2022-11-03T23:08:32.666Z,94378.16
2022-11-03T23:11:10.658Z,94364.59
2022-11-03T23:13:39.083Z,94387.16
2022-11-03T23:16:13.009Z,94346.72
2022-11-03T23:18:58.740Z,94379.97
2022-11-03T23:21:28.321Z,94378.22
2022-11-03T23:24:14.489Z,94384.53
2022-11-03T23:26:44.864Z,94374.16
2022-11-03T23:29:14.418Z,94377.66
2022-11-03T23:31:44.096Z,94372.56
2022-11-03T23:34:13.742Z,94369.06
2022-11-03T23:36:42.164Z,94378.25
2022-11-03T23:39:15.095Z,94291.28
2022-11-03T23:41:45.087Z,94366.28
2022-11-03T23:44:13.590Z,94368.69
2022-11-03T23:46:59.821Z,94363.13
2022-11-03T23:49:28.353Z,94364.13
2022-11-03T23:51:56.731Z,94383.38
2022-11-03T23:54:25.714Z,94344.72
2022-11-03T23:57:09.319Z,94377.47
2022-11-03T23:59:37.878Z,94372.09
